Time;durP1;ratioP1;P1;durP2;ratioP2;P2;SDS_P1;SDS_P2;PMS_P1;PMS_P2;Temp;Humidity;BMP_temperature;BMP_pressure;BME280_temperature;BME280_humidity;BME280_pressure;Samples;Min_cycle;Max_cycle;Signal;HPM_P1;HPM_P2
2023/10/19 00:01:11;;;;;;;30.95;17.85;;;14.00;99.90;;;;;;5016631;28;20036;-83
2023/10/19 00:03:37;;;;;;;32.42;17.77;;;15.20;99.90;;;;;;5019554;28;20034;-82
2023/10/19 00:06:05;;;;;;;32.45;17.85;;;13.60;99.90;;;;;;5011051;28;20123;-85
2023/10/19 00:08:41;;;;;;;33.47;17.88;;;13.70;99.90;;;;;;5016882;28;20030;-82
2023/10/19 00:11:21;;;;;;;31.88;17.27;;;13.70;99.90;;;;;;5015446;28;20030;-84
2023/10/19 00:13:49;;;;;;;28.98;16.58;;;15.40;99.90;;;;;;5018437;28;20551;-83
2023/10/19 00:16:22;;;;;;;24.65;15.95;;;13.70;99.90;;;;;;5007516;28;20038;-82
2023/10/19 00:18:52;;;;;;;26.58;16.05;;;15.00;99.90;;;;;;5009592;28;20561;-82
2023/10/19 00:21:20;;;;;;;25.92;15.45;;;13.10;99.90;;;;;;5028483;28;20029;-82
2023/10/19 00:23:51;;;;;;;28.33;16.02;;;13.70;99.90;;;;;;5014449;28;20101;-85
2023/10/19 00:26:20;;;;;;;27.10;15.95;;;13.80;99.90;;;;;;5012707;28;20058;-81
2023/10/19 00:28:53;;;;;;;32.83;16.83;;;13.80;99.90;;;;;;5029803;23;20041;-88
2023/10/19 00:31:20;;;;;;;27.67;16.08;;;13.80;99.90;;;;;;5034206;28;20027;-89
2023/10/19 00:33:46;;;;;;;28.75;15.98;;;13.80;99.90;;;;;;5009653;28;20053;-88
2023/10/19 00:36:15;;;;;;;25.17;15.43;;;13.70;99.90;;;;;;5019048;28;20027;-89
2023/10/19 00:41:19;;;;;;;27.02;15.98;;;15.80;99.90;;;;;;5014793;28;20022;-88
2023/10/19 00:43:45;;;;;;;28.10;15.20;;;13.80;99.90;;;;;;5037040;28;20049;-89
2023/10/19 00:48:45;;;;;;;27.13;15.35;;;14.10;99.90;;;;;;5018513;28;20045;-88
2023/10/19 00:51:27;;;;;;;22.80;13.88;;;14.10;99.90;;;;;;5025036;28;20010;-89
2023/10/19 00:53:58;;;;;;;24.00;13.40;;;14.10;99.90;;;;;;5019619;28;20042;-89
2023/10/19 00:56:27;;;;;;;22.63;13.05;;;13.90;99.90;;;;;;5021170;28;20057;-87
2023/10/19 00:58:56;;;;;;;22.92;13.15;;;14.00;99.90;;;;;;5025509;28;20026;-89
2023/10/19 01:01:25;;;;;;;17.67;11.25;;;15.60;99.90;;;;;;5026094;28;20026;-88
2023/10/19 01:03:56;;;;;;;19.10;11.90;;;16.00;99.90;;;;;;5026666;28;20029;-87
2023/10/19 01:06:23;;;;;;;20.85;11.75;;;14.40;99.90;;;;;;5021259;28;20041;-88
2023/10/19 01:08:50;;;;;;;24.42;12.15;;;14.90;99.90;;;;;;5022696;28;20026;-88
2023/10/19 01:11:21;;;;;;;17.70;10.85;;;14.10;99.90;;;;;;5024840;28;20025;-87
2023/10/19 01:13:51;;;;;;;16.40;11.18;;;14.10;99.90;;;;;;5024028;28;20010;-89
2023/10/19 01:16:20;;;;;;;;;;;14.20;99.90;;;;;;5032349;28;20044;-88
2023/10/19 01:18:47;;;;;;;17.83;10.48;;;14.70;99.90;;;;;;5031062;28;19928;-90
2023/10/19 01:21:14;;;;;;;15.55;10.25;;;15.60;99.90;;;;;;5032651;28;20006;-87
2023/10/19 01:23:40;;;;;;;17.38;10.80;;;15.30;99.90;;;;;;5045242;28;20038;-87
2023/10/19 01:26:09;;;;;;;16.63;9.45;;;14.30;99.90;;;;;;5024290;28;20037;-88
2023/10/19 01:28:43;;;;;;;16.65;10.20;;;15.20;99.90;;;;;;5028516;28;20211;-88
2023/10/19 01:33:57;;;;;;;15.93;9.77;;;14.30;99.90;;;;;;5024531;28;20022;-88
2023/10/19 01:36:26;;;;;;;16.50;9.63;;;14.20;99.90;;;;;;5041364;28;20018;-87
2023/10/19 01:38:55;;;;;;;16.25;9.45;;;15.00;99.90;;;;;;5042704;28;20078;-88
2023/10/19 01:41:24;;;;;;;14.50;8.77;;;15.40;99.90;;;;;;5022972;28;20070;-88
2023/10/19 01:43:54;;;;;;;18.23;9.27;;;14.20;99.90;;;;;;5030349;28;20006;-89
2023/10/19 01:46:23;;;;;;;16.67;8.88;;;14.20;99.90;;;;;;5027561;28;20050;-88
2023/10/19 01:48:53;;;;;;;13.60;8.75;;;15.30;99.90;;;;;;5026396;28;20052;-91
2023/10/19 01:51:20;;;;;;;;;;;14.40;99.90;;;;;;5028132;28;20017;-89
2023/10/19 01:53:47;;;;;;;14.20;8.20;;;15.10;99.90;;;;;;5033471;28;19901;-91
2023/10/19 01:56:16;;;;;;;14.30;8.50;;;15.90;99.90;;;;;;5032833;28;20094;-87
2023/10/19 01:58:46;;;;;;;11.45;7.78;;;15.70;99.90;;;;;;5029571;28;20123;-90
2023/10/19 02:03:43;;;;;;;13.40;7.78;;;14.30;99.90;;;;;;5026813;28;20030;-90
2023/10/19 02:06:16;;;;;;;17.73;9.30;;;14.10;99.90;;;;;;5029416;28;20078;-88
2023/10/19 02:08:56;;;;;;;13.70;8.80;;;15.10;99.90;;;;;;5018180;28;20036;-87
2023/10/19 02:11:25;;;;;;;17.50;9.75;;;14.10;99.90;;;;;;5021058;28;20052;-89
2023/10/19 02:13:59;;;;;;;15.65;10.32;;;14.00;99.90;;;;;;5019696;28;20036;-88
2023/10/19 02:16:26;;;;;;;15.57;9.48;;;15.70;99.90;;;;;;5024100;28;20033;-86
2023/10/19 02:18:52;;;;;;;14.07;9.15;;;14.10;99.90;;;;;;5025046;28;20030;-87
2023/10/19 02:21:29;;;;;;;18.55;10.57;;;14.20;99.90;;;;;;5025211;28;20036;-88
2023/10/19 02:23:54;;;;;;;18.77;10.52;;;14.10;99.90;;;;;;5032618;28;20021;-88
2023/10/19 02:26:22;;;;;;;19.17;9.88;;;14.00;99.90;;;;;;5027850;28;20010;-89
2023/10/19 02:28:51;;;;;;;15.98;9.30;;;14.10;99.90;;;;;;5022319;28;20061;-88
2023/10/19 02:31:21;;;;;;;16.17;9.55;;;14.10;99.90;;;;;;5027195;28;20018;-88
2023/10/19 02:34:07;;;;;;;14.32;9.27;;;14.10;99.90;;;;;;5022306;28;20038;-88
2023/10/19 02:36:33;;;;;;;14.45;9.60;;;15.60;99.90;;;;;;5026914;28;20089;-90
2023/10/19 02:39:08;;;;;;;13.18;9.48;;;14.30;99.90;;;;;;5022372;28;20041;-88
2023/10/19 02:41:35;;;;;;;19.40;10.38;;;14.20;99.90;;;;;;5020904;28;20046;-89
2023/10/19 02:46:41;;;;;;;14.43;10.18;;;14.10;99.90;;;;;;5023170;28;20024;-88
2023/10/19 02:49:18;;;;;;;16.23;9.88;;;14.10;99.90;;;;;;5019212;28;20034;-89
2023/10/19 02:51:44;;;;;;;19.15;10.48;;;15.10;99.90;;;;;;5027846;28;20115;-88
2023/10/19 02:54:22;;;;;;;17.38;10.07;;;14.00;99.90;;;;;;5022114;28;20017;-88
2023/10/19 02:56:49;;;;;;;15.07;9.63;;;14.10;99.90;;;;;;5021143;28;20014;-90
2023/10/19 02:59:28;;;;;;;16.90;9.88;;;15.30;99.90;;;;;;5025018;28;20033;-88
2023/10/19 03:04:37;;;;;;;15.45;9.68;;;14.80;99.90;;;;;;5021570;28;20045;-88
2023/10/19 03:07:04;;;;;;;15.90;10.45;;;14.10;99.90;;;;;;5024539;28;20052;-90
2023/10/19 03:09:30;;;;;;;16.27;9.55;;;14.20;99.90;;;;;;5024105;28;20029;-85
2023/10/19 03:12:00;;;;;;;14.48;9.88;;;16.20;99.90;;;;;;5024387;28;20053;-89
2023/10/19 03:14:26;;;;;;;17.40;9.55;;;14.30;99.90;;;;;;5023357;28;20276;-89
2023/10/19 03:16:55;;;;;;;17.20;9.57;;;15.20;99.90;;;;;;5023082;28;20325;-89
2023/10/19 03:19:21;;;;;;;13.32;8.80;;;14.30;99.90;;;;;;5016673;28;20026;-89
2023/10/19 03:21:50;;;;;;;13.85;9.00;;;15.30;99.90;;;;;;5030461;28;20065;-89
2023/10/19 03:24:23;;;;;;;15.85;9.35;;;15.80;99.90;;;;;;5016117;28;20033;-88
2023/10/19 03:26:54;;;;;;;18.48;10.82;;;15.60;99.90;;;;;;5030547;28;20026;-87
2023/10/19 03:29:30;;;;;;;13.63;9.07;;;14.20;99.90;;;;;;5018848;28;20053;-89
2023/10/19 03:31:56;;;;;;;16.08;9.82;;;14.20;99.90;;;;;;5022383;28;20014;-88
2023/10/19 03:34:23;;;;;;;16.80;9.25;;;12.70;99.90;;;;;;5022480;28;20044;-86
2023/10/19 03:36:50;;;;;;;15.70;9.38;;;14.20;99.90;;;;;;5021044;28;20030;-86
2023/10/19 03:39:17;;;;;;;17.42;9.88;;;14.30;99.90;;;;;;5024013;28;20054;-89
2023/10/19 03:41:44;;;;;;;15.80;9.55;;;16.00;99.90;;;;;;5022837;28;20093;-88
2023/10/19 03:46:57;;;;;;;16.73;10.05;;;14.30;99.90;;;;;;5019909;28;20015;-87
2023/10/19 03:49:33;;;;;;;16.92;9.65;;;15.60;99.90;;;;;;5019494;28;20034;-89
2023/10/19 03:52:13;;;;;;;14.07;9.05;;;14.50;99.90;;;;;;5023505;28;20086;-88
2023/10/19 03:54:46;;;;;;;17.02;10.02;;;15.30;99.90;;;;;;5022816;28;20022;-88
2023/10/19 03:57:24;;;;;;;15.75;10.43;;;14.30;99.90;;;;;;5023591;28;20030;-86
2023/10/19 03:59:56;;;;;;;18.30;10.70;;;15.30;99.90;;;;;;5020397;28;20018;-89
2023/10/19 04:02:27;;;;;;;17.73;9.40;;;14.50;99.90;;;;;;5014605;28;20058;-89
2023/10/19 04:04:55;;;;;;;16.25;9.23;;;14.40;99.90;;;;;;5015127;28;20011;-88
2023/10/19 04:07:21;;;;;;;17.52;9.25;;;14.50;99.90;;;;;;5018805;28;20030;-89
2023/10/19 04:09:57;;;;;;;16.95;8.52;;;16.20;99.90;;;;;;5021427;28;20041;-89
2023/10/19 04:12:25;;;;;;;16.27;8.88;;;14.50;99.90;;;;;;5015963;28;20965;-90
2023/10/19 04:14:51;;;;;;;17.55;8.93;;;15.40;99.90;;;;;;5020574;28;20031;-90
2023/10/19 04:17:20;;;;;;;13.63;8.43;;;14.70;99.90;;;;;;5021799;28;20090;-88
2023/10/19 04:19:48;;;;;;;15.75;9.02;;;14.40;99.90;;;;;;5013395;28;20044;-85
2023/10/19 04:22:22;;;;;;;14.55;8.68;;;14.30;99.90;;;;;;5026059;28;20018;-89
2023/10/19 04:24:48;;;;;;;13.68;8.45;;;14.30;99.90;;;;;;5028322;28;20033;-89
2023/10/19 04:27:14;;;;;;;12.60;8.48;;;14.20;99.90;;;;;;5015521;28;20090;-88
2023/10/19 04:29:43;;;;;;;11.55;7.95;;;14.30;99.90;;;;;;5016787;28;20046;-89
2023/10/19 04:32:09;;;;;;;11.10;7.57;;;13.90;99.90;;;;;;5014598;28;20018;-89
2023/10/19 04:34:37;;;;;;;13.73;7.45;;;14.50;99.90;;;;;;5018137;28;20040;-88
2023/10/19 04:37:03;;;;;;;16.67;8.73;;;14.20;99.90;;;;;;5014608;28;20045;-88
2023/10/19 04:39:30;;;;;;;11.85;7.45;;;14.40;99.90;;;;;;5025315;28;20019;-90
2023/10/19 04:41:55;;;;;;;12.65;7.22;;;14.60;99.90;;;;;;5023471;28;20030;-89
2023/10/19 04:44:22;;;;;;;10.13;6.57;;;16.50;99.90;;;;;;5023133;28;20026;-91
2023/10/19 04:46:48;;;;;;;12.40;7.18;;;14.80;99.90;;;;;;5024410;28;20034;-89
2023/10/19 04:49:16;;;;;;;15.63;6.57;;;14.60;99.90;;;;;;5027940;28;20034;-89
2023/10/19 04:51:43;;;;;;;14.75;7.45;;;16.60;99.90;;;;;;5025814;28;20030;-89
2023/10/19 04:54:09;;;;;;;10.82;6.15;;;16.00;99.90;;;;;;5029159;28;20014;-90
2023/10/19 04:56:35;;;;;;;9.93;6.00;;;14.70;99.90;;;;;;5035947;28;20057;-88
2023/10/19 04:59:02;;;;;;;11.55;6.05;;;15.30;99.90;;;;;;5032416;28;20415;-90
2023/10/19 05:01:28;;;;;;;9.60;5.88;;;14.40;99.90;;;;;;5025013;28;20018;-91
2023/10/19 05:03:54;;;;;;;13.10;5.93;;;14.60;99.90;;;;;;5026374;28;20010;-89
2023/10/19 05:06:20;;;;;;;12.18;5.15;;;14.50;99.90;;;;;;5031007;28;20045;-90
2023/10/19 05:08:47;;;;;;;10.18;5.53;;;14.90;99.90;;;;;;5027048;28;20129;-87
2023/10/19 05:11:12;;;;;;;7.50;4.65;;;14.40;99.90;;;;;;5028221;28;20030;-88
2023/10/19 05:13:57;;;;;;;8.70;4.57;;;14.60;99.90;;;;;;5030399;28;20046;-88
2023/10/19 05:26:37;;;;;;;9.95;6.03;;;14.40;99.90;;;;;;4959415;28;20098;-82
2023/10/19 05:29:03;;;;;;;14.50;7.20;;;14.30;99.90;;;;;;4953950;28;20043;-80
2023/10/19 05:31:31;;;;;;;11.05;6.30;;;14.30;99.90;;;;;;4954467;28;20027;-84
2023/10/19 05:33:56;;;;;;;11.43;5.65;;;14.40;99.90;;;;;;4954505;28;20035;-82
2023/10/19 05:36:22;;;;;;;8.73;5.72;;;14.40;99.90;;;;;;4951137;28;20035;-84
2023/10/19 05:38:48;;;;;;;10.50;5.43;;;14.50;99.90;;;;;;4956961;28;20416;-82
2023/10/19 05:41:14;;;;;;;11.35;5.35;;;14.50;99.90;;;;;;4959926;28;20034;-83
2023/10/19 05:43:40;;;;;;;9.85;5.10;;;14.60;99.90;;;;;;4958381;28;20123;-81
2023/10/19 05:46:05;;;;;;;8.48;5.22;;;14.50;99.90;;;;;;4956651;28;20449;-87
2023/10/19 05:48:31;;;;;;;11.60;5.05;;;14.50;99.90;;;;;;4959691;28;20057;-81
2023/10/19 05:50:57;;;;;;;10.20;5.18;;;14.50;99.90;;;;;;4955040;28;20064;-83
2023/10/19 05:53:22;;;;;;;10.90;4.90;;;14.40;99.90;;;;;;4975184;28;20054;-85
2023/10/19 05:55:49;;;;;;;7.43;4.70;;;14.40;99.90;;;;;;4964989;28;20050;-81
2023/10/19 05:58:15;;;;;;;8.88;5.22;;;14.60;99.90;;;;;;4961839;28;20027;-84
2023/10/19 06:00:41;;;;;;;12.07;5.50;;;14.50;99.90;;;;;;4958839;28;20472;-83
2023/10/19 06:03:07;;;;;;;11.90;5.40;;;14.30;99.90;;;;;;4960470;28;20049;-84
2023/10/19 06:05:33;;;;;;;9.25;4.90;;;14.40;99.90;;;;;;4969714;28;20027;-86
2023/10/19 06:07:59;;;;;;;13.20;6.13;;;14.40;99.90;;;;;;4958761;28;20038;-83
2023/10/19 06:10:27;;;;;;;13.45;6.28;;;14.30;99.90;;;;;;4979220;28;20035;-83
2023/10/19 06:12:53;;;;;;;11.27;6.85;;;15.10;99.90;;;;;;4958382;28;20027;-84
2023/10/19 06:15:23;;;;;;;13.75;6.57;;;14.20;99.90;;;;;;4972143;28;20078;-86
2023/10/19 06:17:49;;;;;;;13.70;7.35;;;14.40;99.90;;;;;;4951853;28;20027;-84
2023/10/19 06:20:25;;;;;;;14.18;7.55;;;14.40;99.90;;;;;;4977620;28;20042;-84
2023/10/19 06:22:52;;;;;;;14.15;7.32;;;14.40;99.90;;;;;;4958795;28;20086;-86
2023/10/19 06:25:19;;;;;;;11.85;7.57;;;14.40;99.90;;;;;;4961811;28;20046;-83
2023/10/19 06:27:46;;;;;;;13.48;7.68;;;14.60;99.90;;;;;;4958004;28;20042;-80
2023/10/19 06:30:15;;;;;;;17.02;7.40;;;14.30;99.90;;;;;;4971587;28;20299;-80
2023/10/19 06:32:41;;;;;;;16.98;8.23;;;14.30;99.90;;;;;;4946650;28;20023;-81
2023/10/19 06:35:07;;;;;;;13.60;6.78;;;14.40;99.90;;;;;;4972401;28;20050;-85
2023/10/19 06:37:32;;;;;;;14.55;7.32;;;14.30;99.90;;;;;;4965607;28;20058;-80
2023/10/19 06:39:58;;;;;;;14.60;7.72;;;14.30;99.90;;;;;;4956675;28;20470;-82
2023/10/19 06:42:25;;;;;;;12.45;7.25;;;14.30;99.90;;;;;;4954669;28;20023;-83
2023/10/19 06:44:53;;;;;;;13.40;7.25;;;14.30;99.90;;;;;;4962443;28;20031;-82
2023/10/19 06:47:19;;;;;;;13.57;6.90;;;14.40;99.90;;;;;;4957832;28;20106;-82
2023/10/19 06:49:44;;;;;;;11.80;6.75;;;14.30;99.90;;;;;;4959998;28;20405;-85
2023/10/19 06:52:11;;;;;;;12.30;6.72;;;14.50;99.90;;;;;;4976209;28;20060;-83
2023/10/19 06:54:37;;;;;;;11.80;7.20;;;14.40;99.90;;;;;;4958835;28;20024;-84
2023/10/19 06:57:03;;;;;;;15.35;7.47;;;14.40;99.90;;;;;;4960961;28;20026;-81
2023/10/19 06:59:29;;;;;;;18.85;7.65;;;14.40;99.90;;;;;;4960879;28;20023;-83
2023/10/19 07:01:54;;;;;;;12.07;6.82;;;14.30;99.90;;;;;;4959078;28;20027;-82
2023/10/19 07:04:20;;;;;;;13.98;6.82;;;14.50;99.90;;;;;;4961445;28;20035;-85
2023/10/19 07:06:47;;;;;;;12.27;6.60;;;14.40;99.90;;;;;;4965870;28;20038;-82
2023/10/19 07:09:13;;;;;;;11.52;6.47;;;14.40;99.90;;;;;;4962587;28;20089;-83
2023/10/19 07:11:38;;;;;;;12.68;6.93;;;14.30;99.90;;;;;;4974401;28;20609;-80
2023/10/19 07:14:07;;;;;;;11.73;6.80;;;14.50;99.90;;;;;;4964143;28;20027;-85
2023/10/19 07:16:33;;;;;;;12.75;6.90;;;14.50;99.90;;;;;;4960391;28;20031;-84
2023/10/19 07:18:59;;;;;;;11.60;6.13;;;14.50;99.90;;;;;;4961390;28;20024;-82
2023/10/19 07:21:25;;;;;;;15.98;7.18;;;14.50;99.90;;;;;;4957272;28;20027;-83
2023/10/19 07:23:53;;;;;;;12.30;6.78;;;14.60;99.90;;;;;;4959527;28;20034;-86
2023/10/19 07:26:19;;;;;;;14.82;7.50;;;14.60;99.90;;;;;;4958124;28;20035;-85
2023/10/19 07:28:45;;;;;;;15.05;7.68;;;14.60;99.90;;;;;;4970068;28;20030;-85
2023/10/19 07:31:15;;;;;;;13.90;7.47;;;14.70;99.90;;;;;;4982012;28;20035;-83
2023/10/19 07:33:45;;;;;;;15.13;7.40;;;14.80;99.90;;;;;;4968299;28;20067;-85
2023/10/19 07:36:14;;;;;;;14.27;7.72;;;14.70;99.90;;;;;;4973432;28;20054;-84
2023/10/19 07:38:42;;;;;;;13.30;6.72;;;14.80;99.90;;;;;;4954851;28;20037;-83
2023/10/19 07:41:09;;;;;;;15.55;6.95;;;14.80;99.90;;;;;;4956129;28;20031;-85
2023/10/19 07:43:35;;;;;;;15.88;7.68;;;14.90;99.90;;;;;;4947156;28;20043;-80
2023/10/19 07:46:01;;;;;;;18.77;7.80;;;14.90;99.90;;;;;;4975402;28;20033;-83
2023/10/19 07:48:27;;;;;;;12.52;6.70;;;15.00;99.90;;;;;;4963402;28;20027;-86
2023/10/19 07:50:53;;;;;;;14.73;7.30;;;15.30;99.90;;;;;;4960433;28;20043;-84
2023/10/19 07:53:19;;;;;;;12.50;7.05;;;15.20;99.90;;;;;;4955339;28;20019;-83
2023/10/19 07:55:44;;;;;;;14.18;7.57;;;15.30;99.90;;;;;;4970267;28;20109;-85
2023/10/19 07:58:10;;;;;;;10.95;5.93;;;15.40;99.90;;;;;;4962934;28;20046;-83
2023/10/19 08:00:36;;;;;;;12.93;6.28;;;15.60;99.90;;;;;;4949159;28;20104;-83
2023/10/19 08:03:03;;;;;;;10.93;6.10;;;15.60;99.90;;;;;;4964768;28;20697;-85
2023/10/19 08:05:28;;;;;;;10.38;6.40;;;15.70;99.90;;;;;;4963780;28;20039;-85
2023/10/19 08:07:57;;;;;;;8.90;6.03;;;15.80;99.90;;;;;;4951443;28;20500;-85
2023/10/19 08:10:22;;;;;;;8.95;5.03;;;15.80;99.90;;;;;;4955662;28;20035;-86
2023/10/19 08:12:49;;;;;;;10.35;6.65;;;15.80;99.90;;;;;;4955896;28;20023;-79
2023/10/19 08:15:16;;;;;;;10.68;5.90;;;15.80;99.90;;;;;;4975400;28;20023;-80
2023/10/19 08:17:43;;;;;;;13.32;6.47;;;15.80;99.90;;;;;;4956814;28;20507;-82
2023/10/19 08:20:15;;;;;;;10.88;6.60;;;15.90;99.90;;;;;;4954159;28;20031;-84
2023/10/19 08:22:43;;;;;;;10.15;5.95;;;15.90;99.90;;;;;;4953812;28;20285;-83
2023/10/19 08:25:12;;;;;;;10.98;6.25;;;15.80;99.90;;;;;;4951644;28;20126;-81
2023/10/19 08:27:45;;;;;;;13.90;6.07;;;16.00;99.90;;;;;;4954763;28;20035;-86
2023/10/19 08:30:15;;;;;;;11.07;5.50;;;16.20;99.90;;;;;;4958136;28;20291;-84
2023/10/19 08:32:41;;;;;;;10.68;5.50;;;16.00;99.90;;;;;;4953975;28;20070;-79
2023/10/19 08:35:11;;;;;;;12.73;5.72;;;16.00;99.90;;;;;;4956611;28;20033;-84
2023/10/19 08:37:39;;;;;;;11.77;5.43;;;16.10;99.90;;;;;;4956973;28;20029;-81
2023/10/19 08:40:14;;;;;;;12.02;5.25;;;16.20;99.90;;;;;;4963232;28;20138;-85
2023/10/19 08:42:45;;;;;;;7.07;4.95;;;16.00;99.90;;;;;;4966054;28;20094;-79
2023/10/19 08:45:14;;;;;;;8.20;5.18;;;16.00;99.90;;;;;;4957624;28;20118;-85
2023/10/19 08:47:57;;;;;;;9.60;5.13;;;16.00;99.90;;;;;;4956449;28;20058;-83
2023/10/19 08:50:28;;;;;;;10.95;6.63;;;16.00;99.90;;;;;;4959239;28;20055;-82
2023/10/19 08:52:55;;;;;;;8.40;5.32;;;16.00;99.90;;;;;;4957653;28;20035;-82
2023/10/19 08:55:21;;;;;;;10.82;5.60;;;16.30;99.90;;;;;;4954793;28;20511;-86
2023/10/19 08:57:50;;;;;;;13.70;5.30;;;16.10;99.90;;;;;;4955009;28;20033;-83
2023/10/19 09:00:24;;;;;;;9.75;4.78;;;16.10;99.90;;;;;;4958406;28;20086;-82
2023/10/19 09:02:52;;;;;;;10.40;5.03;;;16.20;99.90;;;;;;4964355;28;20043;-86
2023/10/19 09:05:25;;;;;;;8.65;4.28;;;16.30;99.90;;;;;;4949546;28;20039;-81
2023/10/19 09:07:55;;;;;;;9.20;4.88;;;16.20;99.90;;;;;;4949294;28;20031;-83
2023/10/19 09:10:31;;;;;;;8.27;4.72;;;16.20;99.90;;;;;;4950974;28;20023;-82
2023/10/19 09:13:03;;;;;;;9.65;4.63;;;16.20;99.90;;;;;;4953237;28;20091;-80
2023/10/19 09:15:38;;;;;;;8.68;4.20;;;16.20;99.90;;;;;;4968997;28;20388;-80
2023/10/19 09:18:30;;;;;;;10.05;4.75;;;16.30;99.90;;;;;;4960560;28;20035;-81
2023/10/19 09:21:02;;;;;;;6.53;4.00;;;16.40;99.90;;;;;;4973623;28;20035;-84
2023/10/19 09:23:30;;;;;;;9.07;4.55;;;16.50;99.90;;;;;;4955219;28;20488;-81
2023/10/19 09:25:57;;;;;;;12.15;5.00;;;16.70;99.90;;;;;;4952186;28;20035;-83
2023/10/19 09:28:24;;;;;;;10.70;4.13;;;16.80;99.90;;;;;;4954533;28;20032;-80
2023/10/19 09:30:51;;;;;;;6.30;4.03;;;16.80;99.90;;;;;;4951625;28;20046;-81
2023/10/19 09:33:17;;;;;;;10.40;4.30;;;16.90;99.90;;;;;;4963892;28;20030;-83
2023/10/19 09:35:53;;;;;;;7.20;4.28;;;16.90;99.90;;;;;;4958880;28;20264;-86
2023/10/19 09:38:22;;;;;;;8.18;4.00;;;16.90;99.90;;;;;;4957398;28;20031;-84
2023/10/19 09:40:49;;;;;;;8.73;4.22;;;17.00;99.90;;;;;;4959816;28;20037;-84
2023/10/19 09:43:22;;;;;;;7.20;4.05;;;17.00;99.90;;;;;;4959904;28;20041;-82
2023/10/19 09:45:53;;;;;;;7.68;3.63;;;17.10;99.90;;;;;;4960549;28;20031;-82
2023/10/19 09:48:19;;;;;;;7.07;4.18;;;17.20;99.90;;;;;;4965204;28;20039;-82
2023/10/19 09:50:55;;;;;;;8.57;3.88;;;17.20;99.90;;;;;;4975369;28;20890;-80
2023/10/19 09:53:29;;;;;;;6.43;3.75;;;17.30;99.90;;;;;;4966949;28;20029;-81
2023/10/19 09:55:58;;;;;;;6.18;3.70;;;17.20;99.90;;;;;;4962984;28;20074;-81
2023/10/19 09:58:33;;;;;;;6.75;3.58;;;17.30;99.90;;;;;;4965289;28;20059;-79
2023/10/19 10:01:03;;;;;;;8.48;3.63;;;17.40;99.90;;;;;;4963226;28;20026;-81
2023/10/19 10:03:45;;;;;;;8.63;3.60;;;17.40;99.90;;;;;;4970407;28;20097;-79
2023/10/19 10:06:13;;;;;;;6.30;3.83;;;17.40;99.90;;;;;;4979364;28;20035;-81
2023/10/19 10:08:42;;;;;;;7.85;4.22;;;17.40;99.90;;;;;;4977098;28;20066;-80
2023/10/19 10:11:19;;;;;;;7.85;3.60;;;17.40;99.90;;;;;;4970728;28;20028;-83
2023/10/19 10:13:50;;;;;;;6.47;3.65;;;17.40;99.90;;;;;;4974267;28;20029;-83
2023/10/19 10:16:17;;;;;;;4.80;3.30;;;17.40;99.90;;;;;;4959971;28;20027;-83
2023/10/19 10:18:45;;;;;;;7.13;3.60;;;17.30;99.90;;;;;;4968760;28;21270;-84
2023/10/19 10:21:12;;;;;;;7.75;3.85;;;17.30;99.90;;;;;;4960153;28;20058;-84
2023/10/19 10:23:47;;;;;;;5.63;3.85;;;17.40;99.90;;;;;;4955736;28;20301;-83
2023/10/19 10:26:14;;;;;;;6.95;3.10;;;15.80;99.90;;;;;;4973355;28;20032;-82
2023/10/19 10:28:47;;;;;;;6.20;3.75;;;17.20;99.90;;;;;;4958130;28;20045;-86
2023/10/19 10:31:15;;;;;;;7.10;3.85;;;17.10;99.90;;;;;;4956370;28;20059;-84
2023/10/19 10:33:54;;;;;;;7.13;3.40;;;18.50;99.90;;;;;;4973988;28;20030;-84
2023/10/19 10:36:20;;;;;;;6.15;3.58;;;17.00;99.90;;;;;;4979069;28;20023;-85
2023/10/19 10:38:48;;;;;;;8.23;3.33;;;17.00;99.90;;;;;;4962007;28;20023;-84
2023/10/19 10:41:27;;;;;;;6.47;3.40;;;16.90;99.90;;;;;;4966972;28;20143;-80
2023/10/19 10:43:58;;;;;;;6.43;3.33;;;16.90;99.90;;;;;;4963325;28;20043;-84
2023/10/19 10:46:28;;;;;;;8.20;3.08;;;16.90;99.90;;;;;;4975530;28;20023;-80
2023/10/19 10:48:54;;;;;;;5.63;3.15;;;16.80;99.90;;;;;;4956392;28;20130;-82
2023/10/19 10:51:21;;;;;;;4.15;2.72;;;16.80;99.90;;;;;;4965057;28;20034;-86
2023/10/19 10:53:54;;;;;;;7.55;2.80;;;16.80;99.90;;;;;;4960338;28;20027;-83
2023/10/19 10:56:22;;;;;;;8.13;2.75;;;16.80;99.90;;;;;;4953765;28;20054;-81
2023/10/19 10:58:57;;;;;;;6.53;3.25;;;16.90;99.90;;;;;;4954862;28;20023;-83
2023/10/19 11:01:35;;;;;;;8.05;2.97;;;17.00;99.90;;;;;;4960148;28;20047;-82
2023/10/19 11:04:08;;;;;;;6.10;2.50;;;17.00;99.90;;;;;;4955627;28;20041;-86
2023/10/19 11:06:49;;;;;;;6.28;2.40;;;17.10;99.90;;;;;;4953553;28;20035;-84
2023/10/19 11:09:33;;;;;;;6.18;2.38;;;17.10;99.90;;;;;;4963772;28;20098;-86
2023/10/19 11:12:00;;;;;;;4.53;1.90;;;17.20;99.90;;;;;;4958297;28;20034;-85
2023/10/19 11:14:25;;;;;;;4.05;1.95;;;17.30;99.90;;;;;;4956945;28;20023;-84
2023/10/19 11:16:51;;;;;;;5.82;2.00;;;17.30;99.90;;;;;;4957796;28;20050;-85
2023/10/19 11:19:17;;;;;;;4.30;2.10;;;17.40;99.90;;;;;;4953203;28;20067;-85
2023/10/19 11:21:55;;;;;;;4.68;2.40;;;17.50;99.90;;;;;;4975604;28;20038;-80
2023/10/19 11:24:29;;;;;;;6.25;2.33;;;17.60;99.90;;;;;;4978355;28;20038;-85
2023/10/19 11:26:55;;;;;;;5.97;2.35;;;17.70;99.90;;;;;;4971639;28;20038;-80
2023/10/19 11:29:22;;;;;;;5.68;3.72;;;17.70;99.90;;;;;;4975180;28;20505;-84
2023/10/19 11:31:58;;;;;;;4.38;2.45;;;17.70;99.90;;;;;;4962896;28;20031;-85
2023/10/19 11:34:24;;;;;;;7.43;3.67;;;17.80;99.90;;;;;;4956251;28;20047;-80
2023/10/19 11:36:56;;;;;;;8.90;5.90;;;17.70;99.90;;;;;;4960316;28;20026;-82
2023/10/19 11:39:31;;;;;;;3.33;2.10;;;17.70;99.90;;;;;;4962305;28;20023;-79
2023/10/19 11:41:59;;;;;;;5.93;2.17;;;17.80;99.90;;;;;;4963019;28;20145;-83
2023/10/19 11:44:25;;;;;;;2.90;1.52;;;17.80;99.90;;;;;;4963798;28;20011;-78
2023/10/19 11:46:54;;;;;;;4.05;1.70;;;17.90;99.90;;;;;;4966676;28;20031;-82
2023/10/19 11:49:20;;;;;;;3.78;1.63;;;17.90;99.90;;;;;;4965571;28;20043;-82
2023/10/19 11:51:46;;;;;;;2.78;1.67;;;17.80;99.90;;;;;;4958869;28;20054;-84
2023/10/19 11:54:38;;;;;;;5.03;2.30;;;17.80;99.90;;;;;;4970943;28;20059;-83
2023/10/19 11:57:06;;;;;;;3.83;1.70;;;17.70;99.90;;;;;;4947741;28;20042;-84
2023/10/19 11:59:34;;;;;;;3.75;1.85;;;17.70;99.90;;;;;;4966484;28;20043;-82
2023/10/19 12:02:06;;;;;;;2.28;1.50;;;17.50;99.90;;;;;;4956817;28;20023;-81
2023/10/19 12:04:36;;;;;;;5.20;1.80;;;17.50;99.90;;;;;;4958522;28;20024;-81
2023/10/19 12:07:23;;;;;;;3.17;1.38;;;17.50;99.90;;;;;;4947508;28;20613;-82
2023/10/19 12:09:55;;;;;;;4.15;1.60;;;16.20;99.90;;;;;;4942406;28;20122;-84
2023/10/19 12:12:27;;;;;;;2.88;1.40;;;17.40;99.90;;;;;;4954892;28;20031;-87
2023/10/19 12:14:59;;;;;;;3.53;1.58;;;17.30;99.90;;;;;;4941078;28;20042;-85
2023/10/19 12:17:31;;;;;;;2.92;1.63;;;16.90;99.90;;;;;;4953029;28;20245;-82
2023/10/19 12:20:00;;;;;;;2.83;1.50;;;17.30;99.90;;;;;;4954984;28;20034;-84
2023/10/19 12:22:36;;;;;;;3.55;1.60;;;17.30;99.90;;;;;;4940320;28;20039;-81
2023/10/19 12:25:02;;;;;;;3.72;1.70;;;17.20;99.90;;;;;;4946547;28;20049;-87
2023/10/19 14:27:43;;;;;;;5.07;2.63;;;17.20;99.90;;;;;;4787886;29;20034;-85
2023/10/19 14:30:13;;;;;;;7.30;2.30;;;17.30;99.90;;;;;;4795166;29;20189;-83
2023/10/19 14:32:48;;;;;;;5.55;2.55;;;17.20;99.90;;;;;;4845571;29;20044;-85
2023/10/19 14:35:19;;;;;;;6.20;2.30;;;17.20;99.90;;;;;;4903187;29;20436;-83
2023/10/19 14:37:47;;;;;;;3.22;1.90;;;17.20;99.90;;;;;;4919276;29;20123;-86
2023/10/19 14:40:16;;;;;;;3.75;2.10;;;17.20;99.90;;;;;;4962161;28;20025;-85
2023/10/19 14:42:44;;;;;;;4.40;2.10;;;17.20;99.90;;;;;;4952274;28;20027;-86
2023/10/19 14:45:13;;;;;;;5.68;2.28;;;17.30;99.90;;;;;;4959937;28;20038;-85
2023/10/19 14:47:40;;;;;;;6.55;2.65;;;17.30;99.90;;;;;;4958500;28;20035;-86
2023/10/19 14:50:11;;;;;;;5.35;2.30;;;17.30;99.90;;;;;;4960190;28;20495;-86
2023/10/19 14:52:37;;;;;;;;;;;17.30;99.90;;;;;;4966673;28;20059;-84
2023/10/19 14:55:02;;;;;;;4.97;2.00;;;17.30;99.90;;;;;;4957753;28;19911;-85
2023/10/19 14:57:28;;;;;;;2.75;1.55;;;17.30;99.90;;;;;;4959614;28;20054;-85
2023/10/19 14:59:54;;;;;;;4.70;2.17;;;17.30;99.90;;;;;;4960928;28;20444;-85
2023/10/19 15:02:23;;;;;;;3.38;1.90;;;17.20;99.90;;;;;;4975966;28;20027;-86
2023/10/19 15:04:49;;;;;;;5.05;2.63;;;17.20;99.90;;;;;;4960794;28;20480;-84
2023/10/19 15:07:16;;;;;;;4.18;2.00;;;17.10;99.90;;;;;;4964036;28;20038;-86
2023/10/19 15:09:42;;;;;;;5.38;2.47;;;17.10;99.90;;;;;;4957922;28;20059;-86
2023/10/19 15:12:07;;;;;;;3.92;2.47;;;17.10;99.90;;;;;;4958140;28;20043;-84
2023/10/19 15:14:33;;;;;;;4.10;2.50;;;17.10;99.90;;;;;;4958171;28;20066;-84
2023/10/19 15:16:59;;;;;;;6.35;3.03;;;17.10;99.90;;;;;;4978601;28;20024;-88
2023/10/19 15:19:25;;;;;;;5.32;2.17;;;17.10;99.90;;;;;;4975506;28;20031;-86